Tiempo atmosférico en la estación meteorológica de VilagarcÍa de Arousa, Pontevedra (32 m.)



Fecha
DESCASC
Temp. máxima en grados centígrados (hora)
DESCASC
Temp. mínima en grados centígrados (hora)
DESCASC
Temp. media en grados centígrados
DESCASC
Racha de viento máxima en m/sg (hora)
DESCASC
Velocidad máxima media en intervalos de 10 minutos(hora)
DESCASC
Precipitaciones diarias en mm
DESCASC
Precipitaciones de 00:00 a 06:00 en mm
DESCASC
Precipitaciones de 06:00 a 12:00 en mm
DESCASC
Precipitaciones de 12:00 a 18:00 en mm
DESCASC
Precipitaciones de 18:00 a 24:00 en mm
DESCASC
16-01-2020 16.1 (08:20) 9.2 (16:30) 12.7 22.5 (07:10) 9.17 (14:20) 83.8 1.6 5.2 76.8 0.2
15-01-2020 15.3 (02:10) 9.4 (09:50) 12.3 21.39 (00:40) 9.72 (03:30) 15.4 13.4 0.8 0.2 1
14-01-2020 16.4 (16:10) 12.1 (00:00) 14.3 18.61 (15:10) 9.44 (17:30) 0.2 0.2 0 0 0
13-01-2020 12.3 (19:30) 9 (00:00) 10.7 15.56 (23:59) 8.06 (18:20) 0.4 0 0 0 0.4
12-01-2020 12.8 (15:40) 3.2 (03:50) 8 4.72 (16:20) 3.06 (16:20) 0 0 0 0 0
11-01-2020 13.1 (16:20) 2.3 (00:00) 7.7 3.61 (17:20) 2.5 (17:10) 0 0 0 0 0
10-01-2020 12.7 (15:50) 4.5 (00:00) 8.6 5.83 (16:00) 3.33 (16:00) 0.2 0 0 0.2 0
09-01-2020 14.2 (12:50) 8.1 (00:00) 11.2 14.17 (11:40) 7.5 (11:40) 2.4 0.6 1.2 0.2 0.4
08-01-2020 12.3 (13:20) 9.9 (00:00) 11.1 3.06 (15:20) 2.22 (15:20) 1.6 0 0.4 0.4 0.8
07-01-2020 11.7 (16:20) 4 (00:00) 7.8 4.17 (09:10) 2.5 (09:10) 0 0 0 0 0
06-01-2020 11.5 (15:10) 3 (00:00) 7.3 4.72 (13:40) 2.78 (07:20) 0 0 0 0 0
05-01-2020 12.7 (16:30) 1.5 (00:00) 7.1 3.89 (01:50) 2.5 (07:00) 0 0 0 0 0
04-01-2020 12.7 (15:30) 4.8 (00:00) 8.8 5 (16:40) 3.06 (16:20) 0.2 0 0.2 0 0
03-01-2020 14.4 (16:30) 8.6 (00:00) 11.5 6.94 (01:40) 4.17 (01:40) 10.2 3.4 6.8 0 0
02-01-2020 12.4 (22:10) 2.6 (00:00) 7.5 10.28 (21:50) 4.72 (21:10) 0 0 0 0 0
01-01-2020 9.9 (15:50) 2 (00:00) 5.9 3.61 (04:20) 2.22 (05:10) 0 0 0 0 0
31-12-2019 14.4 (16:40) 6.6 (00:00) 10.5 6.67 (14:00) 3.89 (14:00) 0 0 0 0 0
30-12-2019 -- (--) -- (--) -- -- (--) -- (--) -- 0 0 -- 0
29-12-2019 18.3 (16:50) 6.1 (00:00) 12.2 3.61 (09:40) 2.5 (00:20) 0 0 0 0 0
28-12-2019 17.3 (16:50) 3.8 (00:00) 10.5 3.89 (07:10) 2.5 (02:00) 0 0 0 0 0
27-12-2019 14.4 (16:30) 2.6 (00:00) 8.5 6.11 (08:10) 3.89 (04:40) 0 0 0 0 0
26-12-2019 14.2 (15:20) 5.7 (00:00) 9.9 4.72 (00:10) 2.5 (00:10) 0 0 0 0 0
25-12-2019 20.3 (15:50) 10.7 (00:00) 15.5 14.72 (18:30) 7.22 (18:20) 0.4 0 0 0 0.4
24-12-2019 15.7 (16:50) 12.1 (22:20) 13.9 11.67 (02:20) 6.11 (00:20) 1 0.8 0.2 0 0
23-12-2019 15.2 (19:50) 11.1 (00:00) 13.2 12.22 (13:50) 6.39 (14:50) 2.2 0 0.2 0.8 1.2
22-12-2019 15 (15:40) 10.2 (21:40) 12.6 19.72 (09:30) 10.56 (09:30) 6.6 0.2 6.2 0.2 0
21-12-2019 15.5 (11:00) 11.6 (00:50) 13.6 25 (20:10) 11.67 (19:20) 18.4 4.4 7 6.8 0.2
20-12-2019 13.1 (15:50) 8.9 (00:00) 11 15.83 (03:40) 8.61 (03:40) 18.6 4.8 4.2 8.6 1

Gráficas

Temp. máximas Temp. mínimas Temp. medias Precipitaciones Rachas de viento máximas Velocidades máximas media en intervalos de 10 minutos

Datos horarios

Fecha y hora oficial Temperatura (ºC) Velocidad del viento (km/h) Dirección del viento Racha (km/h) Dirección de racha Precipitación (mm) Presión (hPa) Tendencia (hPa) Humedad (%)
2020-01-18 23:00:00 10.7 5 Noroeste 13 Noroeste 0 -- -- 94
2020-01-18 22:00:00 10.7 5 Noroeste 10 Noroeste 0.2 -- -- 98
2020-01-18 21:00:00 11.2 3 Noroeste 27 Oeste 1.6 -- -- 97
2020-01-18 20:00:00 11.7 13 Oeste 34 Oeste 0.2 -- -- 90
2020-01-18 19:00:00 12 14 Oeste 32 Oeste 0 -- -- 84
2020-01-18 18:00:00 11.8 6 Oeste 35 Noroeste 0 -- -- 90
2020-01-18 17:00:00 13.1 18 Oeste 46 Oeste 0 -- -- 78
2020-01-18 16:00:00 13.4 16 Oeste 33 Oeste 0 -- -- 77
2020-01-18 15:00:00 14 16 Oeste 40 Noroeste 0 -- -- 71
2020-01-18 14:00:00 14.1 23 Oeste 47 Oeste 0 -- -- 86
2020-01-18 13:00:00 13.7 18 Oeste 37 Noroeste 0 -- -- 89
2020-01-18 12:00:00 13.9 23 Oeste 44 Oeste 0.6 -- -- 97
2020-01-18 11:00:00 13.8 18 Sudoeste 37 Sur 0 -- -- 97
2020-01-18 10:00:00 13.9 16 Sur 41 Sur 0 -- -- 91
2020-01-18 09:00:00 13.7 15 Sur 31 Sur 0 -- -- 86
2020-01-18 08:00:00 11.5 6 Oeste 15 Noroeste 0 -- -- 90
2020-01-18 07:00:00 11.1 3 Oeste 12 Sudeste 0 -- -- 89
2020-01-18 06:00:00 11.2 5 Sudeste 11 Sudeste 0 -- -- 85
2020-01-18 05:00:00 10.6 3 Sudeste 19 Sudeste 0 -- -- 83
2020-01-18 04:00:00 11 14 Sudeste 33 Sudeste 0 -- -- 78
2020-01-18 03:00:00 10.9 14 Sudeste 26 Sudeste 0 -- -- 78
2020-01-18 02:00:00 10.3 10 Sudeste 21 Sudeste 0 -- -- 79
2020-01-18 01:00:00 10 13 Sudeste 21 Sudeste 0 -- -- 82
2020-01-18 00:00:00 10 8 Sudeste 13 Sudeste 0 -- -- 83
2020-01-17 23:00:00 9.9 7 Sudeste 12 Sudeste 0 -- -- 85
2020-01-17 22:00:00 9.7 6 Sudeste 9 Sudeste 0 -- -- 87
2020-01-17 21:00:00 9.9 3 Sudoeste 9 Sudeste 0 -- -- 86
2020-01-17 20:00:00 9.5 6 Sudeste 9 Este 0 -- -- 90
2020-01-17 19:00:00 9.8 3 Este 8 Sur 0 -- -- 90
2020-01-17 18:00:00 10.9 5 Sur 8 Sur 0 -- -- 86
2020-01-17 17:00:00 11.8 0 Calma 6 Sudoeste 0 -- -- 76
2020-01-17 16:00:00 12 3 Sur 8 Sur 0 -- -- 74
2020-01-17 15:00:00 11.8 4 Noroeste 11 Oeste 0 -- -- 77
2020-01-17 14:00:00 11.8 6 Oeste 15 Sudoeste 0 -- -- 76
2020-01-17 13:00:00 11.7 4 Oeste 10 Oeste 0 -- -- 76
2020-01-17 12:00:00 11.2 5 Oeste 15 Oeste 0 -- -- 78
2020-01-17 11:00:00 8.9 4 Este 6 Este 0 -- -- 94
2020-01-17 10:00:00 7.9 3 Sudeste 8 Este 0 -- -- 95
2020-01-17 09:00:00 9.5 6 Oeste 16 Oeste 0 -- -- 80
2020-01-17 08:00:00 9.5 4 Noroeste 17 Oeste 0 -- -- 84
2020-01-17 07:00:00 9.7 5 Sudoeste 22 Noroeste 0.2 -- -- 87
2020-01-17 06:00:00 10 12 Oeste 48 Oeste 0.2 -- -- 83
2020-01-17 05:00:00 10.7 10 Oeste 17 Sudoeste 0 -- -- 86
2020-01-17 04:00:00 9.7 5 Sudoeste 18 Sudoeste 0 -- -- 94
2020-01-17 03:00:00 10.1 12 Sudoeste 29 Oeste 0.2 -- -- 92
2020-01-17 02:00:00 10.6 10 Sudoeste 29 Noroeste 0.6 -- -- 91
2020-01-17 01:00:00 10.7 10 Oeste 44 Noroeste 0.2 -- -- 89
2020-01-17 00:00:00 12 16 Sudoeste 34 Oeste 0 -- -- 81
2020-01-16 23:00:00 12.6 10 Sudoeste 28 Sudoeste 0 -- -- 87
2020-01-16 22:00:00 12.2 9 Sudoeste 22 Sudoeste 0 -- -- 95
2020-01-16 21:00:00 11.6 12 Sudoeste 20 Sudoeste 0.2 -- -- 97
2020-01-16 20:00:00 11.2 9 Sudoeste 23 Sur 0 -- -- 99
2020-01-16 19:00:00 10.3 12 Sur 30 Sudoeste 0 -- -- 98
2020-01-16 18:00:00 11.3 13 Sudoeste 41 Sur 2.8 -- -- 98
2020-01-16 17:00:00 10.6 24 Sudoeste 71 Sudoeste 20.2 -- -- 100
2020-01-16 16:00:00 13.4 29 Sur 60 Sur 3.8 -- -- 93
2020-01-16 15:00:00 13.6 28 Sur 64 Sudoeste 22.6 -- -- 98
2020-01-16 14:00:00 11.7 26 Sudoeste 60 Sudoeste 22 -- -- 98
2020-01-16 13:00:00 14.3 27 Sudoeste 67 Sur 5.4 -- -- 91
2020-01-16 12:00:00 14.5 23 Sur 66 Sur 4.4 -- -- 92
2020-01-16 11:00:00 15.9 28 Sur 73 Sudoeste 0.4 -- -- 83
2020-01-16 10:00:00 15.7 28 Sur 63 Sudoeste 0.4 -- -- 87
2020-01-16 09:00:00 16.1 21 Sur 49 Sudoeste 0 -- -- 81
2020-01-16 08:00:00 16 26 Sur 81 Sudoeste 0 -- -- 81
2020-01-16 07:00:00 15.9 30 Sur 71 Sudoeste 0 -- -- 83
2020-01-16 06:00:00 15.8 24 Sur 63 Sur 0 -- -- 84
2020-01-16 05:00:00 15.5 24 Sur 58 Sudoeste 0 -- -- 88
2020-01-16 04:00:00 15.4 26 Sur 67 Sudoeste 1.4 -- -- 92
2020-01-16 03:00:00 15.5 24 Sur 56 Sur 0.2 -- -- 92
2020-01-16 02:00:00 15.3 18 Sur 47 Sur 0 -- -- 90
2020-01-16 01:00:00 14.9 15 Sur 35 Sudoeste 0 -- -- 83
2020-01-16 00:00:00 14.6 22 Sur 54 Sudoeste 0 -- -- 89
2020-01-15 23:00:00 14.9 21 Sur 55 Sudoeste 0.2 -- -- 91
2020-01-15 22:00:00 13.4 6 Sur 15 Sur 0.8 -- -- 96
2020-01-15 21:00:00 12.5 7 Sudeste 10 Sudeste 0 -- -- 93
2020-01-15 20:00:00 11.7 4 Sudeste 8 Sudeste 0 -- -- 93
2020-01-15 19:00:00 13.1 3 Sur 14 Sudoeste 0 -- -- 89
2020-01-15 18:00:00 14 9 Sudoeste 16 Sudoeste 0 -- -- 83
2020-01-15 17:00:00 14.5 10 Sudoeste 22 Sudoeste 0 -- -- 77
2020-01-15 16:00:00 14.6 13 Sudoeste 24 Sudoeste 0 -- -- 74
2020-01-15 15:00:00 14.5 8 Sur 20 Oeste 0.2 -- -- 76
2020-01-15 14:00:00 13.3 4 Oeste 13 Oeste 0 -- -- 85
2020-01-15 13:00:00 12.9 8 Sudoeste 13 Sudoeste 0 -- -- 83
2020-01-15 12:00:00 12.1 2 Sudoeste 6 Oeste 0 -- -- 97
2020-01-15 11:00:00 10.7 3 Noroeste 6 Noroeste 0 -- -- 100
2020-01-15 10:00:00 9.4 4 Este 7 Este 0 -- -- 100
2020-01-15 09:00:00 9.7 5 Sudeste 10 Sur 0 -- -- 98
2020-01-15 08:00:00 11 0 Calma 17 Noroeste 0 -- -- 93
2020-01-15 07:00:00 11.5 9 Oeste 24 Sudoeste 0.8 -- -- 99
2020-01-15 06:00:00 11.5 19 Oeste 45 Oeste 6 -- -- 97
2020-01-15 05:00:00 13.6 23 Sudoeste 52 Sudoeste 1.2 -- -- 95
2020-01-15 04:00:00 13.7 23 Sudoeste 62 Sudoeste 5 -- -- 94
2020-01-15 03:00:00 14.3 28 Sur 70 Sur 1.2 -- -- 92
2020-01-15 02:00:00 15.2 31 Sur 70 Sur 0 -- -- 82
2020-01-15 01:00:00 15.1 30 Sur 77 Sudoeste 0 -- -- 83
2020-01-15 00:00:00 15.1 30 Sur 60 Sur 0 -- -- 83
2020-01-14 23:00:00 15 26 Sur 56 Sur 0 -- -- 82
2020-01-14 22:00:00 15 23 Sur 63 Sudoeste 0 -- -- 81
2020-01-14 21:00:00 15.1 24 Sur 58 Sur 0 -- -- 79
2020-01-14 20:00:00 14.9 27 Sur 60 Sur 0 -- -- 77
2020-01-14 19:00:00 14.9 29 Sur 59 Sur 0 -- -- 78
2020-01-14 18:00:00 14.8 30 Sur 66 Sudoeste 0 -- -- 77
2020-01-14 17:00:00 15.7 30 Sur 62 Sur 0 -- -- 75
2020-01-14 16:00:00 16.3 24 Sur 67 Sur 0 -- -- 73
2020-01-14 15:00:00 15.8 28 Sudoeste 56 Sur 0 -- -- 76
2020-01-14 14:00:00 15.7 30 Sur 63 Sudoeste 0 -- -- 76
2020-01-14 13:00:00 14.7 27 Sur 54 Sudoeste 0 -- -- 78
2020-01-14 12:00:00 14.1 21 Sur 44 Sur 0 -- -- 81
2020-01-14 11:00:00 13.9 22 Sur 47 Sur 0 -- -- 80
2020-01-14 10:00:00 13.9 21 Sur 49 Sur 0 -- -- 81
2020-01-14 09:00:00 13.7 21 Sur 41 Sur 0 -- -- 81
2020-01-14 08:00:00 13.5 17 Sur 45 Sudoeste 0 -- -- 84
2020-01-14 07:00:00 13.3 18 Sur 48 Sur 0 -- -- 86
2020-01-14 06:00:00 13.5 24 Sur 48 Sudoeste 0 -- -- 82
2020-01-14 05:00:00 13.6 18 Sur 47 Sur 0 -- -- 81
2020-01-14 04:00:00 13.3 24 Sur 50 Sudoeste 0 -- -- 83
2020-01-14 03:00:00 12.9 17 Sur 46 Sur 0 -- -- 88
2020-01-14 02:00:00 12.6 20 Sur 49 Sur 0 -- -- 89
2020-01-14 01:00:00 12.4 24 Sur 47 Sur 0.2 -- -- 91
2020-01-14 00:00:00 12.1 27 Sur 56 Sudoeste 0.2 -- -- 95
2020-01-13 23:00:00 11.9 17 Sur 46 Sudoeste 0 -- -- 95
2020-01-13 22:00:00 11.8 16 Sur 39 Sur 0.2 -- -- 96
2020-01-13 21:00:00 12.2 21 Sur 50 Sudoeste 0 -- -- 92
2020-01-13 20:00:00 11.7 22 Sur 53 Sur 0 -- -- 89
2020-01-13 19:00:00 12.1 20 Sur 49 Sudoeste 0 -- -- 82
2020-01-13 18:00:00 12 21 Sur 42 Sur 0 -- -- 80
2020-01-13 17:00:00 11.9 19 Sur 44 Sur 0 -- -- 77
2020-01-13 16:00:00 11.9 19 Sur 44 Sur 0 -- -- 76
2020-01-13 15:00:00 12.1 18 Sur 47 Sur 0 -- -- 74
2020-01-13 14:00:00 12.1 15 Sur 41 Sur 0 -- -- 74
2020-01-13 13:00:00 11.9 17 Sur 36 Sur 0 -- -- 74
2020-01-13 12:00:00 11 18 Sur 36 Sudeste 0 -- -- 78
2020-01-13 11:00:00 10.4 14 Sudeste 29 Sur 0 -- -- 80
2020-01-13 10:00:00 10.6 13 Sur 31 Sur 0 -- -- 81
2020-01-13 09:00:00 10.6 14 Sur 29 Sudoeste 0 -- -- 80
2020-01-13 08:00:00 10.5 13 Sur 28 Sudeste 0 -- -- 79
2020-01-13 07:00:00 10.4 8 Sur 22 Sudeste 0 -- -- 79
2020-01-13 06:00:00 10.1 8 Sur 16 Sur 0 -- -- 80
2020-01-13 05:00:00 10.2 8 Sudeste 19 Sur 0 -- -- 81
2020-01-13 04:00:00 10.3 7 Sudoeste 14 Sudoeste 0 -- -- 87
2020-01-13 03:00:00 9.8 4 Este 19 Sudoeste 0 -- -- 88
2020-01-13 02:00:00 9.3 3 Sudeste 11 Sudeste 0 -- -- 91
2020-01-13 01:00:00 9.2 6 Sudeste 9 Este 0 -- -- 95
2020-01-13 00:00:00 9 3 Este 9 Sudeste 0 -- -- 96
2020-01-12 23:00:00 9.3 3 Sudeste 5 Sudeste 0 -- -- 96
2020-01-12 22:00:00 9.3 3 Sudeste 6 Sur 0 -- -- 97
2020-01-12 21:00:00 9 2 Sudeste 6 Sur 0 -- -- 96
2020-01-12 20:00:00 9.5 3 Este 4 Sudeste 0 -- -- 94
2020-01-12 19:00:00 10.8 3 Sudoeste 7 Sur 0 -- -- 89
2020-01-12 18:00:00 12 4 Oeste 10 Oeste 0 -- -- 84
2020-01-12 17:00:00 11.9 8 Noroeste 17 Oeste 0 -- -- 85
2020-01-12 16:00:00 12.5 10 Oeste 14 Oeste 0 -- -- 80
2020-01-12 15:00:00 11.9 9 Noroeste 12 Noroeste 0 -- -- 82
2020-01-12 14:00:00 11.2 5 Noroeste 9 Oeste 0 -- -- 84
2020-01-12 13:00:00 10.4 6 Noroeste 9 Noroeste 0 -- -- 86
2020-01-12 12:00:00 9.1 4 Este 6 Sudeste 0 -- -- 91
2020-01-12 11:00:00 5.7 0 Calma 6 Este 0 -- -- 99
2020-01-12 10:00:00 4.5 3 Sudeste 5 Sudeste 0 -- -- 100
2020-01-12 09:00:00 3.8 4 Norte 6 Norte 0 -- -- 100
2020-01-12 08:00:00 4 3 Oeste 11 Este 0 -- -- 100
2020-01-12 07:00:00 3.5 5 Este 9 Este 0 -- -- 100
2020-01-12 06:00:00 3.3 3 Este 6 Sur 0 -- -- 100
2020-01-12 05:00:00 4 0 Calma 12 Este 0 -- -- 99
2020-01-12 04:00:00 4 9 Sudeste 12 Sudeste 0 -- -- 100
2020-01-12 03:00:00 3.6 2 Nordeste 5 Este 0 -- -- 100
2020-01-12 02:00:00 4.1 5 Sudeste 8 Sudeste 0 -- -- 100
2020-01-12 01:00:00 4.5 2 Norte 6 Sudeste 0 -- -- 99
2020-01-12 00:00:00 4.9 4 Este 8 Sudeste 0 -- -- 99
2020-01-11 23:00:00 5.6 3 Sudeste 4 Sudeste 0 -- -- 97
2020-01-11 22:00:00 6.1 4 Sudeste 6 Sudeste 0 -- -- 96
2020-01-11 21:00:00 7.3 6 Sudeste 8 Sudeste 0 -- -- 96
2020-01-11 20:00:00 7.4 5 Sudeste 6 Sur 0 -- -- 94
2020-01-11 19:00:00 9 5 Sur 10 Sudoeste 0 -- -- 87
2020-01-11 18:00:00 11.7 7 Sudoeste 13 Oeste 0 -- -- 77
2020-01-11 17:00:00 12.7 7 Oeste 10 Oeste 0 -- -- 70
2020-01-11 16:00:00 12.7 6 Noroeste 12 Oeste 0 -- -- 68
2020-01-11 15:00:00 12.2 6 Noroeste 9 Oeste 0 -- -- 71
2020-01-11 14:00:00 10.5 3 Norte 7 Noroeste 0 -- -- 77
2020-01-11 13:00:00 8.9 5 Noroeste 6 Noroeste 0 -- -- 88
2020-01-11 12:00:00 6.9 0 Calma 5 Este 0 -- -- 97
2020-01-11 11:00:00 4 3 Este 5 Este 0 -- -- 100
2020-01-11 10:00:00 2.7 0 Calma 4 Sudeste 0 -- -- 100
2020-01-11 09:00:00 2.6 3 Norte 9 Este 0 -- -- 100
2020-01-11 08:00:00 2.3 6 Este 9 Este 0 -- -- 100
2020-01-11 07:00:00 2.7 0 Calma 6 Este 0 -- -- 100
2020-01-11 06:00:00 2.8 3 Sudeste 9 Este 0 -- -- 99
2020-01-11 05:00:00 3.7 6 Este 10 Sudeste 0 -- -- 99
2020-01-11 04:00:00 4.3 5 Sudeste 11 Sudeste 0 -- -- 99
2020-01-11 03:00:00 4.6 6 Sudeste 10 Sudeste 0 -- -- 99
2020-01-11 02:00:00 4.9 6 Sudeste 9 Sudeste 0 -- -- 99
2020-01-11 01:00:00 5.6 0 Calma 6 Sudeste 0 -- -- 96
2020-01-11 00:00:00 6 4 Este 7 Sudeste 0 -- -- 93
2020-01-10 23:00:00 6.7 0 Calma 6 Sudoeste 0 -- -- 92
2020-01-10 22:00:00 7.5 2 Sudeste 13 Nordeste 0 -- -- 90
2020-01-10 21:00:00 7.2 3 Este 8 Sur 0 -- -- 90
2020-01-10 20:00:00 8.4 3 Sur 9 Sur 0 -- -- 87
2020-01-10 19:00:00 9.4 3 Sudeste 6 Sur 0 -- -- 84
2020-01-10 18:00:00 11.5 4 Nordeste 14 Nordeste 0 -- -- 75
2020-01-10 17:00:00 12.4 9 Norte 18 Este 0.2 -- -- 71
2020-01-10 16:00:00 12.6 12 Este 21 Este 0 -- -- 66
2020-01-10 15:00:00 11.9 8 Nordeste 15 Nordeste 0 -- -- 79
2020-01-10 14:00:00 10.6 7 Norte 18 Norte 0 -- -- 86
2020-01-10 13:00:00 9.7 0 Calma 9 Oeste 0 -- -- 94
2020-01-10 12:00:00 7.7 0 Calma 10 Noroeste 0 -- -- 100
2020-01-10 11:00:00 6.4 0 Calma 11 Sudeste 0 -- -- 100
2020-01-10 10:00:00 4.8 4 Sudeste 10 Nordeste 0 -- -- 100
2020-01-10 09:00:00 4.7 0 Calma 6 Nordeste 0 -- -- 100
2020-01-10 08:00:00 4.8 2 Norte 5 Norte 0 -- -- 100
2020-01-10 07:00:00 5.1 3 Este 6 Sudeste 0 -- -- 100
2020-01-10 06:00:00 5.2 4 Sudeste 5 Sudeste 0 -- -- 100
2020-01-10 05:00:00 5.6 3 Este 6 Sudeste 0 -- -- 100
2020-01-10 04:00:00 6.4 5 Sudeste 9 Sur 0 -- -- 100
2020-01-10 03:00:00 6.7 6 Sur 12 Sur 0 -- -- 100
2020-01-10 02:00:00 6.6 4 Sudeste 8 Sudeste 0 -- -- 99
2020-01-10 01:00:00 7.5 4 Sudeste 8 Sur 0 -- -- 99
2020-01-10 00:00:00 8.1 5 Sudeste 9 Sudeste 0.2 -- -- 98
2020-01-09 23:00:00 8.6 2 Noroeste 7 Sudeste 0.2 -- -- 95
2020-01-09 22:00:00 8.7 4 Sudeste 8 Sur 0 -- -- 91
2020-01-09 21:00:00 9.6 3 Este 8 Oeste 0 -- -- 86
2020-01-09 20:00:00 11 8 Noroeste 18 Noroeste 0 -- -- 77
2020-01-09 19:00:00 11.2 5 Oeste 19 Oeste 0 -- -- 74
2020-01-09 18:00:00 12.2 14 Noroeste 30 Noroeste 0 -- -- 71
2020-01-09 17:00:00 12.6 19 Noroeste 33 Noroeste 0.2 -- -- 74
2020-01-09 16:00:00 12.6 16 Noroeste 31 Oeste 0 -- -- 75
2020-01-09 15:00:00 12.6 21 Noroeste 44 Oeste 0 -- -- 79
2020-01-09 14:00:00 13.7 22 Oeste 43 Oeste 0 -- -- 84
2020-01-09 13:00:00 14.2 20 Oeste 39 Sudoeste 0 -- -- 98
2020-01-09 12:00:00 13.4 22 Sudoeste 51 Sudoeste 0.2 -- -- 100
2020-01-09 11:00:00 13.6 19 Sudoeste 41 Sudoeste 0.2 -- -- 100
2020-01-09 10:00:00 13.4 21 Sur 42 Sur 0.6 -- -- 100
2020-01-09 09:00:00 13.4 18 Sur 39 Sudoeste 0.2 -- -- 100
2020-01-09 08:00:00 13.3 17 Sur 34 Sur 0 -- -- 100
2020-01-09 07:00:00 13.1 14 Sudoeste 31 Sur 0 -- -- 100
2020-01-09 06:00:00 13.1 14 Sur 26 Sur 0 -- -- 100
2020-01-09 05:00:00 13.1 11 Sudoeste 31 Sur 0 -- -- 100
2020-01-09 04:00:00 13 14 Sudoeste 30 Sur 0.4 -- -- 100
2020-01-09 03:00:00 12.9 12 Sudoeste 22 Sur 0 -- -- 100
2020-01-09 02:00:00 12.6 6 Sudoeste 13 Sudoeste 0.2 -- -- 100
2020-01-09 01:00:00 11.5 5 Noroeste 8 Noroeste 0 -- -- 100
2020-01-09 00:00:00 11.5 0 Calma 5 Este 0.2 -- -- 100
2020-01-08 23:00:00 11.4 0 Calma 4 Sudeste 0 -- -- 100
2020-01-08 22:00:00 11.3 0 Calma 5 Noroeste 0 -- -- 100
2020-01-08 21:00:00 11.3 3 Noroeste 8 Noroeste 0 -- -- 100
2020-01-08 20:00:00 11.2 5 Este 8 Oeste 0.4 -- -- 100
2020-01-08 19:00:00 11.3 5 Oeste 7 Oeste 0.2 -- -- 100
2020-01-08 18:00:00 11.4 0 Calma 9 Oeste 0 -- -- 100
2020-01-08 17:00:00 11.6 4 Noroeste 6 Noroeste 0 -- -- 100
2020-01-08 16:00:00 11.6 0 Calma 11 Oeste 0 -- -- 100
2020-01-08 15:00:00 12.1 3 Noroeste 10 Oeste 0 -- -- 100
2020-01-08 14:00:00 12.2 6 Noroeste 10 Oeste 0.2 -- -- 100
2020-01-08 13:00:00 12 0 Calma 3 Este 0.2 -- -- 100
2020-01-08 12:00:00 11 2 Norte 7 Noroeste 0.2 -- -- 100
2020-01-08 11:00:00 10.8 0 Calma 4 Oeste 0.2 -- -- 100
2020-01-08 10:00:00 10.2 0 Calma 5 Este 0 -- -- 100
2020-01-08 09:00:00 10 2 Este 4 Este 0 -- -- 99
2020-01-08 08:00:00 10.2 0 Calma 4 Noroeste 0 -- -- 99
2020-01-08 07:00:00 10.2 0 Calma 5 Sudeste 0 -- -- 96
2020-01-08 06:00:00 10 2 Sudeste 4 Sudeste 0 -- -- 97
2020-01-08 05:00:00 9.9 2 Este 4 Nordeste 0 -- -- 98
2020-01-08 04:00:00 9.9 0 Calma 3 Este 0 -- -- 97
2020-01-08 03:00:00 10 0 Calma 5 Sudeste 0 -- -- 96
2020-01-08 02:00:00 10 4 Sudeste 6 Sudeste 0 -- -- 98
2020-01-08 01:00:00 10.1 2 Sudeste 6 Oeste 0 -- -- 97
2020-01-08 00:00:00 10.2 2 Este 4 Este 0 -- -- 96
2020-01-07 23:00:00 10.3 3 Sur 5 Sur 0 -- -- 95
2020-01-07 22:00:00 10.1 2 Nordeste 4 Sudeste 0 -- -- 96
2020-01-07 21:00:00 9.8 3 Sudeste 11 Sudeste 0 -- -- 96
2020-01-07 20:00:00 9.5 5 Este 8 Sudeste 0 -- -- 98
2020-01-07 19:00:00 9.2 2 Sudeste 6 Sudeste 0 -- -- 95
2020-01-07 18:00:00 10.6 2 Sudeste 6 Oeste 0 -- -- 87
2020-01-07 17:00:00 10.9 6 Noroeste 10 Oeste 0 -- -- 88
2020-01-07 16:00:00 11.3 2 Norte 8 Sudoeste 0 -- -- 91
2020-01-07 15:00:00 11.2 4 Sudoeste 9 Oeste 0 -- -- 88
2020-01-07 14:00:00 10 4 Noroeste 8 Oeste 0 -- -- 91
2020-01-07 13:00:00 10.1 2 Este 5 Sudeste 0 -- -- 90
2020-01-07 12:00:00 8 2 Este 6 Noroeste 0 -- -- 98
2020-01-07 11:00:00 6 3 Noroeste 4 Este 0 -- -- 100
2020-01-07 10:00:00 5.1 2 Este 15 Sudeste 0 -- -- 99
2020-01-07 09:00:00 4.5 6 Sudeste 13 Sudeste 0 -- -- 100
2020-01-07 08:00:00 4.9 3 Noroeste 13 Este 0 -- -- 99
2020-01-07 07:00:00 5.2 8 Este 12 Sudeste 0 -- -- 99
2020-01-07 06:00:00 4.2 3 Este 5 Este 0 -- -- 99
2020-01-07 05:00:00 5 6 Este 12 Sudeste 0 -- -- 99
2020-01-07 04:00:00 5.2 5 Este 12 Este 0 -- -- 99
2020-01-07 03:00:00 5.2 5 Sudeste 7 Sudeste 0 -- -- 99
2020-01-07 02:00:00 5.6 3 Este 10 Sudeste 0 -- -- 98
2020-01-07 01:00:00 6.1 7 Este 9 Sudeste 0 -- -- 98
2020-01-07 00:00:00 6.8 5 Sudeste 8 Este 0 -- -- 97
2020-01-06 23:00:00 6.7 4 Este 7 Sudeste 0 -- -- 97
2020-01-06 22:00:00 7.8 2 Este 5 Sur 0 -- -- 94
2020-01-06 21:00:00 9.1 3 Sudeste 5 Sudeste 0 -- -- 93
2020-01-06 20:00:00 9.9 0 Calma 4 Este 0 -- -- 94
2020-01-06 19:00:00 10.2 2 Sudeste 5 Sur 0 -- -- 92
2020-01-06 18:00:00 10.3 3 Sudeste 5 Sudeste 0 -- -- 90
2020-01-06 17:00:00 10.6 0 Calma 13 Noroeste 0 -- -- 88
2020-01-06 16:00:00 10.6 5 Noroeste 11 Oeste 0 -- -- 88
2020-01-06 15:00:00 11 4 Noroeste 10 Oeste 0 -- -- 88
2020-01-06 14:00:00 10.5 8 Noroeste 17 Sur 0 -- -- 89
2020-01-06 13:00:00 8.7 6 Sudeste 10 Sudeste 0 -- -- 99
2020-01-06 12:00:00 7 3 Oeste 8 Oeste 0 -- -- 100
2020-01-06 11:00:00 5.9 3 Norte 5 Noroeste 0 -- -- 100
2020-01-06 10:00:00 5 3 Noroeste 9 Noroeste 0 -- -- 100